Latest Weather Observations for Hamilton

IDV60801

Issued at 8:02 am EST Monday 25 July 2016 (issued every 30 minutes, with the page automatically refreshed every 10 minutes)

About weather observations | Map of weather stations | Latest weather observations for VIC | Other Formats
Station Details ID: 090173 Name: HAMILTON AIRPORT Lat: -37.65 Lon: 142.06 Height: 241.1 m
Data from the previous 72 hours. | See also: Recent months at Hamilton
Date/Time
EST
Temp
°C
App
Temp
°C
Dew
Point
°C
Rel
Hum
%
Delta-T
°C
Wind Press
QNH
hPa
Press
MSL
hPa
Rain since
9am
mm
Dir  Spd
km/h
Gust
km/h
Spd
kts
Gust
kts
25/08:00am 6.2 2.2 4.8 91 0.6 NW 15 19 8 10 1009.2 1009.6 2.2
25/07:30am 6.2 0.8 4.7 90 0.7 WNW 22 30 12 16 1009.1 1009.5 2.2
25/07:00am 6.5 1.6 5.1 91 0.6 WNW 20 28 11 15 1008.6 1009.0 2.2
25/06:55am 6.6 1.8 5.4 92 0.5 WNW 20 28 11 15 1008.6 1009.0 2.2
25/06:30am 6.7 1.9 5.7 93 0.5 WNW 20 28 11 15 1008.5 1008.9 2.2
25/06:00am 6.6 1.4 5.7 94 0.4 WNW 22 30 12 16 1008.1 1008.5 2.2
25/05:34am 6.9 1.4 6.0 94 0.4 WNW 24 32 13 17 1007.9 1008.3 2.2
25/05:30am 6.9 1.8 6.0 94 0.4 WNW 22 32 12 17 1007.9 1008.3 2.2
25/05:17am 6.9 2.2 6.0 94 0.4 WNW 20 28 11 15 1007.7 1008.0 2.2
25/05:00am 6.9 1.4 5.8 93 0.5 WNW 24 33 13 18 1007.6 1007.9 2.2
25/04:30am 6.6 1.8 5.7 94 0.4 WNW 20 28 11 15 1007.2 1007.5 2.2
25/04:00am 6.0 1.7 5.1 94 0.4 NW 17 20 9 11 1006.9 1007.2 2.2
25/03:30am 5.8 1.0 4.9 94 0.4 NW 19 24 10 13 1006.4 1006.8 2.2
25/03:00am 5.0 0.5 4.1 94 0.4 NNW 17 22 9 12 1006.2 1006.6 2.0
25/02:42am 5.1 0.0 4.2 94 0.4 NW 20 24 11 13 1006.1 1006.5 2.0
25/02:30am 5.1 0.2 4.2 94 0.4 NNW 19 24 10 13 1006.1 1006.5 2.0
25/02:00am 4.4 -0.8 3.5 94 0.4 NNW 20 22 11 12 1005.7 1006.1 2.0
25/01:30am 4.7 -0.5 3.5 92 0.5 N 20 24 11 13 1005.3 1005.7 2.0
25/01:00am 4.8 -0.4 3.5 91 0.5 NNW 20 26 11 14 1005.1 1005.5 2.0
25/12:30am 4.8 -0.4 3.5 91 0.5 NW 20 30 11 16 1005.1 1005.5 2.0
25/12:00am 4.7 -0.3 3.5 92 0.5 NNW 19 24 10 13 1005.0 1005.4 2.0
 
Date/Time
EST
Temp
°C
App
Temp
°C
Dew
Point
°C
Rel
Hum
%
Delta-T
°C
Wind Press
QNH
hPa
Press
MSL
hPa
Rain since
9am
mm
Dir  Spd
km/h
Gust
km/h
Spd
kts
Gust
kts
24/11:30pm 4.8 -0.2 3.5 91 0.5 NNW 19 24 10 13 1004.8 1005.2 2.0
24/11:00pm 4.9 -0.3 3.6 91 0.6 NNW 20 26 11 14 1004.6 1005.0 2.0
24/10:30pm 5.0 -0.6 3.7 91 0.6 NNW 22 28 12 15 1004.4 1004.8 2.0
24/10:00pm 4.9 -1.1 3.6 91 0.6 NNW 24 32 13 17 1004.4 1004.8 2.0
24/09:30pm 4.8 -0.8 3.5 91 0.5 NNW 22 28 12 15 1004.0 1004.3 2.0
24/09:00pm 5.0 -1.3 3.5 90 0.6 NNW 26 32 14 17 1003.8 1004.1 2.0
24/08:30pm 5.2 -0.4 3.4 88 0.8 NNW 22 30 12 16 1003.7 1004.0 2.0
24/08:00pm 5.4 -1.3 3.4 87 0.8 NNW 28 35 15 19 1003.3 1003.6 2.0
24/07:30pm 5.6 -1.1 3.6 87 0.9 NNW 28 35 15 19 1003.1 1003.4 2.0
24/07:00pm 5.4 -0.9 3.7 89 0.7 NNW 26 30 14 16 1002.8 1003.1 2.0
24/06:30pm 5.8 -0.4 4.1 89 0.7 NNW 26 35 14 19 1002.5 1002.8 2.0
24/06:00pm 6.1 -0.1 4.3 88 0.8 NNW 26 37 14 20 1002.0 1002.4 2.0
24/05:30pm 6.6 -0.3 4.4 86 1.0 NNW 30 41 16 22 1002.2 1002.5 2.0
24/05:08pm 6.9 0.4 4.6 85 1.0 NNW 28 46 15 25 1002.2 1002.5 2.0
24/05:00pm 6.9 0.0 4.6 85 1.0 NNW 30 41 16 22 1002.0 1002.4 2.0
24/04:30pm 7.1 0.2 4.4 83 1.2 NW 30 37 16 20 1002.0 1002.4 2.0
24/04:01pm 7.8 0.0 5.1 83 1.2 NNW 35 56 19 30 1002.0 1002.4 2.0
24/04:00pm 7.8 0.1 5.3 84 1.1 NNW 35 46 19 25 1001.9 1002.3 2.0
24/03:30pm 7.7 -0.7 5.5 86 1.0 NNW 39 59 21 32 1001.6 1002.0 2.0
24/03:24pm 7.9 0.9 5.9 87 0.9 NNW 32 54 17 29 1001.7 1002.1 2.0
24/03:00pm 8.5 0.1 5.8 83 1.3 N 39 50 21 27 1001.6 1002.0 1.8
24/02:37pm 8.4 1.3 5.7 83 1.2 N 32 44 17 24 1001.8 1002.2 1.8
24/02:30pm 8.4 0.8 5.9 84 1.2 N 35 52 19 28 1001.9 1002.3 1.8
24/02:22pm 8.5 0.9 5.8 83 1.2 N 35 52 19 28 1002.0 1002.4 1.8
24/02:00pm 8.7 1.2 6.3 85 1.1 N 35 50 19 27 1002.5 1002.8 1.8
24/01:30pm 7.2 -1.1 6.0 92 0.5 N 39 52 21 28 1003.2 1003.5 1.8
24/01:00pm 6.0 -1.9 4.6 91 0.6 N 35 46 19 25 1004.5 1004.9 1.6
24/12:45pm 6.1 -2.5 4.4 89 0.7 NNW 39 57 21 31 1005.0 1005.4 1.0
24/12:30pm 6.5 -1.4 4.5 87 0.9 NNW 35 46 19 25 1005.4 1005.8 0.4
24/12:04pm 8.0 0.5 3.5 73 2.0 N 32 50 17 27 1005.6 1006.0 0.0
24/12:00pm 8.1 1.1 4.1 76 1.8 N 30 37 16 20 1005.7 1006.1 0.0
24/11:30am 8.0 0.5 4.2 77 1.7 N 33 44 18 24 1006.2 1006.6 0.0
24/11:07am 7.2 0.2 4.0 80 1.4 N 30 48 16 26 1006.9 1007.2 0.0
24/11:00am 7.1 -0.4 3.7 79 1.5 N 32 48 17 26 1007.1 1007.4 0.0
24/10:30am 7.0 -0.4 3.8 80 1.4 N 32 46 17 25 1007.3 1007.6 0.0
24/10:00am 6.7 -0.9 4.0 83 1.2 N 33 41 18 22 1007.5 1007.8 0.0
24/09:30am 5.7 -1.0 3.9 88 0.8 N 28 35 15 19 1007.8 1008.1 0.0
24/09:00am 4.9 -1.0 3.7 92 0.5 N 24 28 13 15 1008.1 1008.5 0.6
24/08:30am 4.1 -1.2 3.2 94 0.4 N 20 28 11 15 1008.2 1008.6 0.6
24/08:00am 3.4 -1.8 2.5 94 0.4 N 19 24 10 13 1008.5 1008.9 0.4
24/07:30am 3.3 -2.1 2.4 94 0.4 N 20 24 11 13 1008.7 1009.1 0.4
24/07:00am 3.2 -1.7 2.3 94 0.4 N 17 20 9 11 1008.6 1009.0 0.4
24/06:30am 3.5 -1.3 2.6 94 0.4 N 17 20 9 11 1008.7 1009.1 0.4
24/06:00am 3.1 -2.1 2.2 94 0.4 N 19 20 10 11 1008.8 1009.2 0.4
24/05:30am 2.8 -1.7 1.9 94 0.4 N 15 19 8 10 1009.2 1009.6 0.4
24/05:00am 3.2 -1.7 2.3 94 0.4 N 17 20 9 11 1009.2 1009.6 0.4
24/04:30am 3.5 -1.3 2.6 94 0.4 N 17 19 9 10 1009.7 1010.1 0.4
24/04:00am 3.6 -1.2 2.7 94 0.4 NNW 17 19 9 10 1010.3 1010.7 0.4
24/03:30am 3.5 -1.3 2.8 95 0.3 N 17 20 9 11 1010.6 1011.0 0.4
24/03:00am 3.1 -1.4 2.4 95 0.3 N 15 19 8 10 1011.3 1011.6 0.4
24/02:30am 2.6 -2.3 1.9 95 0.3 N 17 20 9 11 1011.6 1012.0 0.4
24/02:00am 3.0 -2.2 2.3 95 0.3 N 19 22 10 12 1011.7 1012.1 0.4
24/01:30am 3.4 -1.8 2.7 95 0.3 N 19 22 10 12 1011.8 1012.2 0.4
24/01:00am 3.4 -1.8 2.7 95 0.3 N 19 22 10 12 1011.8 1012.2 0.4
24/12:30am 2.8 -1.3 2.1 95 0.3 N 13 17 7 9 1012.0 1012.4 0.4
24/12:00am 2.5 -2.1 1.6 94 0.4 N 15 17 8 9 1012.4 1012.8 0.4
 
Date/Time
EST
Temp
°C
App
Temp
°C
Dew
Point
°C
Rel
Hum
%
Delta-T
°C
Wind Press
QNH
hPa
Press
MSL
hPa
Rain since
9am
mm
Dir  Spd
km/h
Gust
km/h
Spd
kts
Gust
kts
23/11:55pm 2.7 -1.9 1.8 94 0.4 N 15 17 8 9 1012.4 1012.8 0.4
23/11:42pm 2.8 -1.7 1.9 94 0.4 N 15 17 8 9 1012.4 1012.8 0.4
23/11:30pm 2.8 -1.7 1.9 94 0.4 NNW 15 17 8 9 1012.5 1012.9 0.4
23/11:00pm 3.2 -0.9 2.0 92 0.5 N 13 17 7 9 1012.4 1012.8 0.4
23/10:30pm 3.6 0.3 2.6 93 0.4 NW 9 11 5 6 1012.6 1013.0 0.4
23/10:00pm 3.4 -0.3 2.5 94 0.4 NNW 11 15 6 8 1012.6 1013.0 0.4
23/09:30pm 3.2 -0.5 2.2 93 0.4 NNW 11 13 6 7 1012.7 1013.1 0.4
23/09:00pm 3.6 -0.1 2.3 91 0.5 NNW 11 13 6 7 1012.7 1013.1 0.4
23/08:30pm 3.8 0.1 2.6 92 0.5 NNW 11 15 6 8 1012.9 1013.3 0.4
23/08:00pm 3.5 -0.6 2.2 91 0.5 N 13 15 7 8 1012.8 1013.2 0.2
23/07:30pm 4.4 0.7 2.6 88 0.7 NW 11 13 6 7 1012.8 1013.2 0.2
23/07:00pm 5.4 1.4 2.9 84 1.0 WNW 13 15 7 8 1012.5 1012.9 0.2
23/06:30pm 6.1 2.2 3.3 82 1.2 WNW 13 20 7 11 1012.3 1012.7 0.2
23/06:00pm 5.7 1.6 2.5 80 1.3 WNW 13 15 7 8 1011.7 1012.1 0.2
23/05:30pm 6.3 2.0 3.1 80 1.4 W 15 22 8 12 1011.5 1011.9 0.2
23/05:00pm 6.8 1.6 3.8 81 1.3 W 20 26 11 14 1011.3 1011.6 0.2
23/04:30pm 7.9 2.8 2.8 70 2.2 W 19 28 10 15 1010.9 1011.2 0.2
23/04:00pm 8.4 2.7 2.8 68 2.4 W 22 32 12 17 1010.6 1011.0 0.2
23/03:30pm 8.7 3.6 3.3 69 2.3 WNW 19 26 10 14 1010.4 1010.8 0.2
23/03:00pm 8.5 3.4 3.9 73 2.0 W 20 28 11 15 1010.1 1010.5 0.2
23/02:30pm 7.5 -0.4 2.4 70 2.1 WSW 33 43 18 23 1009.7 1010.1 0.2
23/02:00pm 8.7 1.8 2.7 66 2.6 W 28 41 15 22 1009.5 1009.9 0.2
23/01:30pm 6.7 0.6 2.6 75 1.7 W 24 33 13 18 1009.6 1010.0 0.2
23/01:03pm 7.7 0.8 2.6 70 2.2 WSW 28 46 15 25 1009.5 1009.9 0.0
23/01:00pm 8.1 0.7 1.7 64 2.7 WSW 30 43 16 23 1009.2 1009.6 0.0
23/12:30pm 9.0 0.9 1.2 58 3.2 WSW 33 44 18 24 1009.1 1009.5 0.0
23/12:13pm 8.5 0.5 1.6 62 2.9 W 33 52 18 28 1009.0 1009.4 0.0
23/12:00pm 8.4 0.7 2.2 65 2.6 WSW 32 44 17 24 1009.0 1009.4 0.0
23/11:30am 8.1 1.5 2.1 66 2.5 W 26 37 14 20 1009.1 1009.5 0.0
23/11:00am 7.4 0.5 2.3 70 2.1 W 28 39 15 21 1009.1 1009.5 0.0
23/10:30am 6.6 0.4 1.9 72 1.9 W 24 32 13 17 1008.8 1009.2 0.0
23/10:00am 6.3 0.4 1.8 73 1.8 W 22 30 12 16 1008.3 1008.7 0.0
23/09:30am 5.3 -2.2 1.4 76 1.6 WSW 30 43 16 23 1008.0 1008.4 0.0
23/09:00am 5.5 -1.3 1.1 73 1.8 W 26 35 14 19 1007.4 1007.7 15.8
23/08:30am 4.6 -0.9 0.7 76 1.5 W 19 30 10 16 1006.9 1007.2 15.8
23/08:00am 4.1 -1.5 1.0 80 1.2 W 20 30 11 16 1006.2 1006.6 15.8
23/07:35am 4.7 -3.2 0.8 76 1.5 WSW 32 50 17 27 1005.9 1006.3 15.8
23/07:30am 5.0 -3.2 0.6 73 1.7 WSW 33 50 18 27 1005.8 1006.2 15.8
23/07:00am 5.1 -2.8 1.0 75 1.6 WSW 32 54 17 29 1005.0 1005.4 15.8
23/06:53am 5.3 -1.9 0.7 72 1.8 WSW 28 50 15 27 1005.1 1005.5 15.8
23/06:30am 4.4 -1.2 1.4 81 1.2 WSW 20 30 11 16 1004.3 1004.6 15.8
23/06:00am 5.1 -2.2 2.3 82 1.2 WSW 30 43 16 23 1003.8 1004.1 15.8
23/05:30am 5.0 -1.4 3.2 88 0.8 WSW 26 43 14 23 1003.1 1003.4 15.8
23/05:17am 5.2 -1.1 3.5 89 0.7 WSW 26 59 14 32 1002.9 1003.2 15.8
23/05:00am 5.0 0.4 3.5 90 0.6 W 17 22 9 12 1002.4 1002.7 15.6
23/04:30am 5.6 -1.9 4.2 91 0.6 WSW 33 56 18 30 1001.6 1002.0 15.6
23/04:19am 5.9 -1.5 4.2 89 0.7 WSW 32 50 17 27 1001.2 1001.6 15.4
23/04:00am 6.0 -0.6 4.3 89 0.7 WSW 28 39 15 21 1000.6 1000.9 15.2
23/03:51am 6.0 -0.6 4.3 89 0.7 W 28 39 15 21 1000.5 1000.8 15.2
23/03:30am 6.0 -1.3 4.5 90 0.7 WSW 32 48 17 26 1000.3 1000.6 15.2
23/03:00am 5.9 -1.0 4.5 91 0.6 W 30 39 16 21 999.7 1000.0 15.2
23/02:57am 5.9 -0.6 4.5 91 0.6 W 28 39 15 21 999.7 1000.0 15.2
23/02:30am 6.0 0.3 4.8 92 0.5 W 24 33 13 18 999.0 999.3 15.0
23/02:00am 6.2 1.5 5.2 93 0.4 WNW 19 26 10 14 998.4 998.7 14.4
23/01:30am 6.3 1.6 5.3 93 0.4 W 19 26 10 14 997.4 997.8 14.4
23/01:29am 6.2 1.5 5.0 92 0.5 W 19 28 10 15 997.3 997.6 14.4
23/01:05am 6.7 1.6 5.8 94 0.4 W 22 32 12 17 996.8 997.1 14.4
23/01:00am 6.6 1.1 5.7 94 0.4 W 24 32 13 17 996.7 997.0 14.2
23/12:36am 7.1 1.6 5.9 92 0.5 W 24 32 13 17 996.4 996.7 12.2
23/12:30am 7.1 2.0 5.9 92 0.5 W 22 32 12 17 996.1 996.4 11.6
23/12:12am 7.0 1.1 5.6 91 0.6 WNW 26 35 14 19 995.7 996.0 11.6
23/12:00am 7.0 0.3 5.5 90 0.7 W 30 41 16 22 995.4 995.7 11.6
 
Date/Time
EST
Temp
°C
App
Temp
°C
Dew
Point
°C
Rel
Hum
%
Delta-T
°C
Wind Press
QNH
hPa
Press
MSL
hPa
Rain since
9am
mm
Dir  Spd
km/h
Gust
km/h
Spd
kts
Gust
kts
22/11:45pm 7.2 0.1 5.7 90 0.7 WNW 32 54 17 29 995.2 995.5 11.6
22/11:37pm 7.3 -0.4 5.4 88 0.9 WNW 35 54 19 29 995.1 995.4 11.4
22/11:30pm 7.4 -0.7 5.4 87 0.9 WNW 37 48 20 26 994.9 995.2 11.4
22/11:29pm 7.4 -0.7 5.4 87 0.9 WNW 37 48 20 26 994.9 995.2 11.4
22/11:13pm 7.5 -0.2 5.3 86 1.0 WNW 35 54 19 29 994.5 994.8 11.0
22/11:00pm 7.1 -0.3 5.1 87 0.9 W 33 59 18 32 994.4 994.7 11.0
22/10:57pm 7.1 -0.7 5.1 87 0.9 W 35 59 19 32 994.3 994.6 11.0
22/10:36pm 7.9 -0.7 4.7 80 1.4 WNW 39 65 21 35 993.8 994.0 10.4
22/10:30pm 8.1 0.3 4.7 79 1.5 WNW 35 48 19 26 993.8 994.0 10.4
22/10:00pm 8.2 0.2 5.8 85 1.1 NW 37 56 20 30 993.6 993.8 10.4
22/09:59pm 8.2 0.6 5.8 85 1.1 NW 35 54 19 29 993.4 993.7 10.4
22/09:30pm 7.9 1.6 5.9 87 0.9 NW 28 41 15 22 993.7 993.9 10.4
22/09:00pm 7.4 1.9 6.0 91 0.6 NW 24 39 13 21 994.0 994.2 10.4
22/08:49pm 7.2 2.0 5.7 90 0.7 NW 22 35 12 19 994.5 994.8 10.4
22/08:35pm 7.0 -0.1 5.3 89 0.8 WNW 32 52 17 28 994.5 994.8 10.2
22/08:30pm 6.9 0.9 5.2 89 0.8 WNW 26 52 14 28 995.0 995.3 10.0
22/08:00pm 7.2 2.4 5.8 91 0.6 NW 20 26 11 14 994.6 994.9 9.0
22/07:31pm 7.3 2.8 5.9 91 0.6 NW 19 26 10 14 994.3 994.6 9.0
22/07:30pm 7.3 2.6 5.9 91 0.6 NW 20 30 11 16 994.3 994.6 9.0
22/07:04pm 9.0 4.2 7.3 89 0.8 NW 22 50 12 27 995.4 995.7 7.0
22/07:03pm 9.0 4.6 7.3 89 0.8 NW 20 43 11 23 994.8 995.1 6.6
22/07:01pm 9.1 5.3 7.5 90 0.8 NNW 17 20 9 11 994.8 995.1 6.2
22/07:00pm 9.2 5.4 7.6 90 0.8 NNW 17 20 9 11 994.8 995.1 5.8
22/06:30pm 9.1 6.0 7.1 87 1.0 N 13 17 7 9 994.6 994.9 4.6
22/06:00pm 9.3 5.0 7.1 86 1.1 NNW 19 22 10 12 994.8 995.1 4.6
22/05:30pm 9.8 5.2 6.7 81 1.5 NW 20 24 11 13 994.8 995.1 4.6
22/05:00pm 10.4 5.5 6.9 79 1.7 WNW 22 30 12 16 995.0 995.3 4.6
22/04:30pm 11.1 5.4 6.8 75 2.1 WNW 26 35 14 19 995.4 995.7 4.6
22/04:00pm 11.1 5.0 6.8 75 2.1 WNW 28 39 15 21 995.4 995.7 4.6
22/03:30pm 10.2 4.9 8.3 88 0.9 WNW 26 37 14 20 995.6 995.9 4.6
22/03:00pm 10.3 4.1 7.9 85 1.2 WNW 30 39 16 21 996.0 996.3 4.0
22/02:45pm 10.9 5.1 8.1 83 1.4 WNW 28 50 15 27 995.5 995.8 4.0
22/02:30pm 10.9 6.5 8.8 87 1.1 W 22 28 12 15 995.5 995.8 3.8
22/02:00pm 13.1 7.7 8.0 71 2.6 WNW 26 35 14 19 995.5 995.8 3.4
22/01:30pm 12.2 7.0 8.9 80 1.7 WNW 26 37 14 20 995.9 996.2 3.4
22/01:00pm 11.2 5.6 8.6 84 1.3 WNW 28 52 15 28 996.2 996.5 3.4
22/12:52pm 11.3 5.2 8.3 82 1.5 WNW 30 52 16 28 996.2 996.5 3.4
22/12:30pm 11.6 6.4 9.0 84 1.3 WNW 26 35 14 19 996.4 996.7 3.4
22/12:00pm 10.6 4.5 8.2 85 1.2 WNW 30 44 16 24 996.6 996.9 3.4
22/11:40am 9.8 3.2 7.7 87 1.0 WNW 32 43 17 23 997.1 997.4 3.2
22/11:34am 9.7 2.4 7.3 85 1.2 WNW 35 54 19 29 997.2 997.5 3.0
22/11:30am 9.7 1.7 7.3 85 1.2 WNW 39 56 21 30 997.0 997.3 3.0
22/11:19am 11.0 4.5 9.1 88 1.0 WNW 33 59 18 32 997.0 997.3 2.2
22/11:14am 11.4 5.3 9.7 89 0.9 NW 32 43 17 23 996.8 997.1 0.8
22/11:00am 12.4 6.0 9.2 81 1.6 NW 33 44 18 24 996.6 996.9 0.0
22/10:30am 12.5 5.4 9.5 82 1.5 NW 37 48 20 26 996.8 997.1 0.0
22/10:00am 12.7 5.6 9.7 82 1.6 NW 37 52 20 28 997.0 997.3 0.0
22/09:30am 12.4 6.2 9.4 82 1.5 NW 32 46 17 25 997.2 997.5 0.0
22/09:00am 12.4 5.3 9.4 82 1.5 NW 37 48 20 26 997.4 997.8 19.4
22/08:30am 12.1 5.7 9.5 84 1.3 NNW 33 48 18 26 997.3 997.6 19.4

Other Formats:

Comma delimited format used in spreadsheet applications
http://www.bom.gov.au/fwo/IDV60801/IDV60801.94829.axf

JavaScript Object Notation format (JSON) in row-major order
http://www.bom.gov.au/fwo/IDV60801/IDV60801.94829.json